createdAt,value
2023-02-04T00:00:58.105Z,98051.03
2023-02-04T00:05:59.816Z,98052.81
2023-02-04T00:11:01.718Z,98048.66
2023-02-04T00:16:03.610Z,98062.28
2023-02-04T00:21:05.632Z,98069.00
2023-02-04T00:26:07.295Z,98060.22
2023-02-04T00:31:09.094Z,98049.13
2023-02-04T00:36:10.807Z,98061.88
2023-02-04T00:41:12.441Z,98090.16
2023-02-04T00:46:14.171Z,98075.66
2023-02-04T00:51:15.864Z,98080.13
2023-02-04T00:56:17.562Z,98096.47
2023-02-04T01:01:19.570Z,98094.00
2023-02-04T01:06:22.485Z,98108.28
2023-02-04T01:11:24.362Z,98120.22
2023-02-04T01:16:26.840Z,98121.66
2023-02-04T01:21:29.829Z,98112.50
2023-02-04T01:26:31.736Z,98140.75
2023-02-04T01:31:34.091Z,98143.91
2023-02-04T01:36:37.452Z,98143.91
2023-02-04T01:41:39.922Z,98143.47
2023-02-04T01:46:41.947Z,98151.03
2023-02-04T01:51:43.787Z,98146.41
2023-02-04T01:56:47.780Z,98182.63
2023-02-04T02:01:54.093Z,98171.75
2023-02-04T02:06:59.006Z,98180.34
2023-02-04T02:12:02.963Z,98189.66
2023-02-04T02:17:04.762Z,98196.34
2023-02-04T02:22:25.992Z,98190.91
2023-02-04T02:27:27.696Z,98216.84
2023-02-04T02:32:32.939Z,98221.94
2023-02-04T02:37:34.872Z,98232.88
2023-02-04T02:42:37.579Z,98233.75
2023-02-04T02:47:39.400Z,98229.59
2023-02-04T02:52:41.149Z,98236.91
2023-02-04T02:57:44.109Z,98243.41
2023-02-04T03:02:53.588Z,98265.13
2023-02-04T03:07:55.427Z,98270.97
2023-02-04T03:12:58.824Z,98265.31
2023-02-04T03:18:01.119Z,98266.97
2023-02-04T03:23:02.919Z,98273.47
2023-02-04T03:28:05.634Z,98274.75
2023-02-04T03:33:07.404Z,98277.69
2023-02-04T03:38:09.114Z,98300.69
2023-02-04T03:43:10.864Z,98303.59
2023-02-04T03:48:12.630Z,98300.88
2023-02-04T03:53:14.893Z,98299.84
2023-02-04T03:58:16.668Z,98308.22
2023-02-04T04:03:18.380Z,98309.91
2023-02-04T04:08:20.055Z,98321.03
2023-02-04T04:13:21.957Z,98317.88
2023-02-04T04:18:23.667Z,98312.44
2023-02-04T04:23:25.710Z,98317.25
2023-02-04T04:28:27.373Z,98336.28
2023-02-04T04:33:29.199Z,98355.50
2023-02-04T04:38:31.003Z,98349.47
2023-02-04T04:43:32.645Z,98356.56
2023-02-04T04:48:34.433Z,98362.63
2023-02-04T04:53:36.130Z,98370.19
2023-02-04T04:58:37.743Z,98370.59
2023-02-04T05:03:39.692Z,98373.31
2023-02-04T05:08:41.711Z,98381.88
2023-02-04T05:13:43.437Z,98393.56
2023-02-04T05:18:45.208Z,98391.47
2023-02-04T05:23:46.847Z,98406.53
2023-02-04T05:28:48.617Z,98412.97
2023-02-04T05:33:50.249Z,98412.34
2023-02-04T05:38:51.907Z,98418.63
2023-02-04T05:43:53.848Z,98421.97
2023-02-04T05:48:55.587Z,98438.25
2023-02-04T05:53:57.249Z,98440.97
2023-02-04T05:58:58.945Z,98447.44
2023-02-04T06:04:00.662Z,98458.53
2023-02-04T06:09:02.539Z,98475.47
2023-02-04T06:14:04.214Z,98482.97
2023-02-04T06:19:05.923Z,98488.00
2023-02-04T06:24:08.093Z,98483.38
2023-02-04T06:29:10.060Z,98498.03
2023-02-04T06:34:11.838Z,98506.38
2023-02-04T06:39:13.501Z,98514.53
2023-02-04T06:44:15.268Z,98527.25
2023-02-04T06:49:17.071Z,98531.63
2023-02-04T06:54:18.863Z,98543.16
2023-02-04T06:59:20.596Z,98544.78
2023-02-04T07:04:22.281Z,98549.13
2023-02-04T07:09:24.071Z,98561.00
2023-02-04T07:14:25.891Z,98562.25
2023-02-04T07:19:27.680Z,98572.25
2023-02-04T07:24:29.526Z,98581.00
2023-02-04T07:29:31.187Z,98592.91
2023-02-04T07:34:32.868Z,98605.63
2023-02-04T07:39:34.503Z,98609.41
2023-02-04T07:44:37.702Z,98624.03
2023-02-04T07:49:39.379Z,98630.72
2023-02-04T07:54:41.223Z,98630.59
2023-02-04T07:59:42.860Z,98644.44
2023-02-04T08:04:44.496Z,98671.97
2023-02-04T08:09:46.920Z,98682.28
2023-02-04T08:14:48.531Z,98687.81
2023-02-04T08:19:50.417Z,98692.19
2023-02-04T08:24:52.174Z,98692.94
2023-02-04T08:29:55.222Z,98702.81
2023-02-04T08:34:59.938Z,98711.91
2023-02-04T08:40:01.718Z,98716.03
2023-02-04T08:45:03.947Z,98727.34
2023-02-04T08:50:05.935Z,98727.06
2023-02-04T08:55:08.328Z,98737.28
2023-02-04T09:00:11.712Z,98744.97
2023-02-04T09:05:13.457Z,98765.47
2023-02-04T09:10:15.388Z,98765.22
2023-02-04T09:15:17.426Z,98774.81
2023-02-04T09:20:19.412Z,98774.41
2023-02-04T09:25:21.265Z,98786.94
2023-02-04T09:30:23.173Z,98795.59
2023-02-04T09:35:24.942Z,98798.59
2023-02-04T09:40:28.594Z,98806.81
2023-02-04T09:45:36.138Z,98801.78
2023-02-04T09:50:37.823Z,98816.41
2023-02-04T09:55:43.201Z,98832.44
2023-02-04T10:00:47.258Z,98831.25
2023-02-04T10:05:51.521Z,98840.06
2023-02-04T10:10:54.265Z,98843.69
2023-02-04T10:15:56.426Z,98852.88
2023-02-04T10:21:17.249Z,98856.63
2023-02-04T10:26:21.317Z,98857.16
2023-02-04T10:31:46.776Z,98859.34
2023-02-04T10:36:57.694Z,98859.59
2023-02-04T10:42:01.253Z,98853.34
2023-02-04T10:47:15.291Z,98854.16
2023-02-04T10:52:19.936Z,98856.63
2023-02-04T10:57:28.250Z,98849.78
2023-02-04T11:02:48.919Z,98853.53
2023-02-04T11:07:51.505Z,98852.47
2023-02-04T11:12:53.073Z,98849.88
2023-02-04T11:18:29.948Z,98845.63
2023-02-04T11:23:33.698Z,98840.38
2023-02-04T11:28:41.074Z,98839.03
2023-02-04T11:33:42.939Z,98842.38
2023-02-04T11:38:49.895Z,98831.50
2023-02-04T11:43:53.122Z,98837.22
2023-02-04T11:48:57.120Z,98837.00
2023-02-04T11:53:58.827Z,98833.28
2023-02-04T11:59:00.506Z,98834.22
2023-02-04T12:04:07.042Z,98845.47
2023-02-04T12:09:24.782Z,98837.59
2023-02-04T12:14:35.131Z,98837.94
2023-02-04T12:19:36.786Z,98830.09
2023-02-04T12:24:38.657Z,98828.56
2023-02-04T12:29:40.453Z,98826.75
2023-02-04T12:34:42.157Z,98826.22
2023-02-04T12:39:43.785Z,98816.38
2023-02-04T12:44:45.477Z,98833.44
2023-02-04T12:49:47.194Z,98817.53
2023-02-04T12:54:48.872Z,98831.28
2023-02-04T12:59:50.993Z,98823.91
2023-02-04T13:04:52.745Z,98828.63
2023-02-04T13:09:54.447Z,98834.13
2023-02-04T13:14:56.116Z,98833.72
2023-02-04T13:19:57.839Z,98832.47
2023-02-04T13:24:59.568Z,98835.91
2023-02-04T13:30:01.613Z,98843.22
2023-02-04T13:35:03.532Z,98859.16
2023-02-04T13:40:07.723Z,98858.28
2023-02-04T13:45:12.707Z,98855.81
2023-02-04T13:50:16.216Z,98871.88
2023-02-04T13:55:18.010Z,98875.84
2023-02-04T14:00:19.888Z,98881.25
2023-02-04T14:05:21.576Z,98888.84
2023-02-04T14:10:24.947Z,98891.47
2023-02-04T14:15:26.760Z,98891.41
2023-02-04T14:20:28.456Z,98902.28
2023-02-04T14:25:30.110Z,98904.19
2023-02-04T14:30:33.020Z,98906.94
2023-02-04T14:35:35.176Z,98911.00
2023-02-04T14:40:37.049Z,98913.31
2023-02-04T14:45:40.093Z,98925.81
2023-02-04T14:50:41.778Z,98918.19
2023-02-04T14:55:43.422Z,98924.78
2023-02-04T15:00:45.232Z,98921.63
2023-02-04T15:05:46.888Z,98922.44
2023-02-04T15:10:48.554Z,98918.06
2023-02-04T15:15:50.588Z,98929.78
2023-02-04T15:20:52.385Z,98936.59
2023-02-04T15:25:57.369Z,98944.19
2023-02-04T15:30:59.209Z,98950.59
2023-02-04T15:36:01.036Z,98957.25
2023-02-04T15:41:04.428Z,98963.47
2023-02-04T15:46:06.837Z,98956.75
2023-02-04T15:51:09.324Z,98967.31
2023-02-04T15:56:11.119Z,98963.31
2023-02-04T16:01:15.039Z,98970.66
2023-02-04T16:06:16.724Z,98965.06
2023-02-04T16:11:18.404Z,98964.63
2023-02-04T16:16:20.456Z,98970.69
2023-02-04T16:21:22.341Z,98971.28
2023-02-04T16:26:24.045Z,98969.50
2023-02-04T16:31:25.957Z,98987.50
2023-02-04T16:36:27.698Z,98986.00
2023-02-04T16:41:29.489Z,98996.16
2023-02-04T16:46:33.552Z,99004.97
2023-02-04T16:51:35.436Z,99021.81
2023-02-04T16:56:37.086Z,99027.72
2023-02-04T17:01:38.834Z,99030.44
2023-02-04T17:06:40.622Z,99030.59
2023-02-04T17:11:42.456Z,99040.72
2023-02-04T17:16:45.283Z,99047.69
2023-02-04T17:21:47.322Z,99043.97
2023-02-04T17:26:49.102Z,99053.84
2023-02-04T17:31:52.646Z,99056.28
2023-02-04T17:36:54.417Z,99061.38
2023-02-04T17:41:56.129Z,99055.34
2023-02-04T17:46:58.992Z,99066.94
2023-02-04T17:52:01.020Z,99069.19
2023-02-04T17:57:16.568Z,99066.66
2023-02-04T18:02:29.578Z,99065.63
2023-02-04T18:07:31.683Z,99065.16
2023-02-04T18:12:34.451Z,99067.69
2023-02-04T18:17:36.130Z,99070.34
2023-02-04T18:22:37.799Z,99066.44
2023-02-04T18:27:39.518Z,99067.47
2023-02-04T18:32:42.109Z,99066.31
2023-02-04T18:37:48.977Z,99071.06
2023-02-04T18:43:01.425Z,99077.81
2023-02-04T18:48:21.702Z,99077.13
2023-02-04T18:53:25.282Z,99080.84
2023-02-04T18:58:42.673Z,99076.75
2023-02-04T19:04:00.151Z,99082.84
2023-02-04T19:09:24.326Z,99073.19
2023-02-04T19:14:36.307Z,99082.66
2023-02-04T19:19:40.360Z,99080.81
2023-02-04T19:24:42.148Z,99077.94
2023-02-04T19:29:43.876Z,99092.63
2023-02-04T19:34:45.487Z,99092.25
2023-02-04T19:39:48.924Z,99093.91
2023-02-04T19:44:51.645Z,99092.38
2023-02-04T19:49:57.533Z,99084.13
2023-02-04T19:55:22.539Z,99086.47
2023-02-04T20:00:33.583Z,99083.44
2023-02-04T20:05:35.376Z,99083.19
2023-02-04T20:10:37.104Z,99079.34
2023-02-04T20:15:39.005Z,99080.66
2023-02-04T20:20:42.995Z,99087.78
2023-02-04T20:25:47.697Z,99092.16
2023-02-04T20:30:51.509Z,99112.03
2023-02-04T20:35:53.162Z,99106.13
2023-02-04T20:40:55.457Z,99115.72
2023-02-04T20:46:00.057Z,99116.69
2023-02-04T20:51:03.927Z,99127.41
2023-02-04T20:56:24.883Z,99131.44
2023-02-04T21:01:34.399Z,99134.97
2023-02-04T21:06:36.967Z,99131.75
2023-02-04T21:11:38.673Z,99132.72
2023-02-04T21:16:40.292Z,99148.03
2023-02-04T21:21:42.191Z,99156.81
2023-02-04T21:26:44.505Z,99163.03
2023-02-04T21:31:46.560Z,99154.28
2023-02-04T21:36:48.381Z,99166.19
2023-02-04T21:42:09.829Z,99166.31
2023-02-04T21:47:11.589Z,99170.00
2023-02-04T21:52:14.939Z,99171.41
2023-02-04T21:57:16.643Z,99171.00
2023-02-04T22:02:18.292Z,99163.94
2023-02-04T22:07:20.186Z,99167.78
2023-02-04T22:12:21.875Z,99166.41
2023-02-04T22:17:23.608Z,99171.25
2023-02-04T22:22:25.478Z,99172.44
2023-02-04T22:27:27.262Z,99174.66
2023-02-04T22:32:30.184Z,99174.09
2023-02-04T22:37:31.958Z,99172.13
2023-02-04T22:42:33.720Z,99168.22
2023-02-04T22:47:35.412Z,99156.66
2023-02-04T22:52:37.131Z,99159.97
2023-02-04T22:57:38.761Z,99151.53
2023-02-04T23:02:40.516Z,99155.06
2023-02-04T23:07:42.192Z,99155.38
2023-02-04T23:12:44.538Z,99158.31
2023-02-04T23:17:46.355Z,99153.31
2023-02-04T23:22:48.094Z,99159.00
2023-02-04T23:27:49.867Z,99151.94
2023-02-04T23:32:51.893Z,99167.22
2023-02-04T23:37:53.723Z,99164.38
2023-02-04T23:42:55.372Z,99168.09
2023-02-04T23:47:56.983Z,99159.31
2023-02-04T23:52:58.830Z,99164.69
2023-02-04T23:58:00.668Z,99158.53
